sensor_id;sensor_type;location;lat;lon;timestamp;pressure;altitude;pressure_sealevel;temperature;humidity
48364;BME280;34170;54.364;18.582;2022-07-29T00:01:41;100979.94;;;12.87;100.00
48364;BME280;34170;54.364;18.582;2022-07-29T00:04:09;100989.44;;;12.91;100.00
48364;BME280;34170;54.364;18.582;2022-07-29T00:06:36;100985.34;;;12.87;100.00
48364;BME280;34170;54.364;18.582;2022-07-29T00:09:04;100974.53;;;12.87;100.00
48364;BME280;34170;54.364;18.582;2022-07-29T00:11:32;100972.69;;;12.87;100.00
48364;BME280;34170;54.364;18.582;2022-07-29T00:13:59;100979.25;;;12.85;100.00
48364;BME280;34170;54.364;18.582;2022-07-29T00:16:26;100979.38;;;12.83;100.00
48364;BME280;34170;54.364;18.582;2022-07-29T00:18:54;100979.38;;;12.83;100.00
48364;BME280;34170;54.364;18.582;2022-07-29T00:21:21;100988.19;;;12.85;100.00
48364;BME280;34170;54.364;18.582;2022-07-29T00:23:48;100983.63;;;12.86;100.00
48364;BME280;34170;54.364;18.582;2022-07-29T00:26:16;100981.50;;;12.89;100.00
48364;BME280;34170;54.364;18.582;2022-07-29T00:28:43;100986.88;;;12.89;100.00
48364;BME280;34170;54.364;18.582;2022-07-29T00:31:10;100986.06;;;12.89;100.00
48364;BME280;34170;54.364;18.582;2022-07-29T00:33:38;100981.91;;;12.94;100.00
48364;BME280;34170;54.364;18.582;2022-07-29T00:36:05;100991.16;;;12.92;100.00
48364;BME280;34170;54.364;18.582;2022-07-29T00:38:33;100983.63;;;12.86;100.00
48364;BME280;34170;54.364;18.582;2022-07-29T00:41:00;100982.78;;;12.85;100.00
48364;BME280;34170;54.364;18.582;2022-07-29T00:43:28;100987.34;;;12.85;100.00
48364;BME280;34170;54.364;18.582;2022-07-29T00:45:55;100980.53;;;12.81;100.00
48364;BME280;34170;54.364;18.582;2022-07-29T00:48:22;100978.69;;;12.81;100.00
48364;BME280;34170;54.364;18.582;2022-07-29T00:50:50;100978.97;;;12.88;100.00
48364;BME280;34170;54.364;18.582;2022-07-29T00:53:19;100978.22;;;12.86;100.00
48364;BME280;34170;54.364;18.582;2022-07-29T00:55:47;100985.34;;;12.87;100.00
48364;BME280;34170;54.364;18.582;2022-07-29T00:58:15;100987.47;;;12.83;100.00
48364;BME280;34170;54.364;18.582;2022-07-29T01:00:43;100986.78;;;12.81;100.00
48364;BME280;34170;54.364;18.582;2022-07-29T01:03:11;100983.22;;;12.81;100.00
48364;BME280;34170;54.364;18.582;2022-07-29T01:05:41;100985.06;;;12.80;100.00
48364;BME280;34170;54.364;18.582;2022-07-29T01:08:17;100996.72;;;12.81;100.00
48364;BME280;34170;54.364;18.582;2022-07-29T01:10:45;100994.03;;;12.81;100.00
48364;BME280;34170;54.364;18.582;2022-07-29T01:13:14;100991.72;;;12.86;100.00
48364;BME280;34170;54.364;18.582;2022-07-29T01:15:51;100993.44;;;12.87;100.00
48364;BME280;34170;54.364;18.582;2022-07-29T01:18:31;100991.03;;;12.84;100.00
48364;BME280;34170;54.364;18.582;2022-07-29T01:21:27;100994.03;;;12.81;100.00
48364;BME280;34170;54.364;18.582;2022-07-29T01:29:55;100997.56;;;12.71;100.00
48364;BME280;34170;54.364;18.582;2022-07-29T01:32:29;100991.59;;;12.68;100.00
48364;BME280;34170;54.364;18.582;2022-07-29T01:35:12;100992.75;;;12.65;100.00
48364;BME280;34170;54.364;18.582;2022-07-29T01:38:05;100992.16;;;12.62;100.00
48364;BME280;34170;54.364;18.582;2022-07-29T01:43:50;100993.88;;;12.53;100.00
48364;BME280;34170;54.364;18.582;2022-07-29T01:46:27;100984.22;;;12.50;100.00
48364;BME280;34170;54.364;18.582;2022-07-29T01:49:02;100989.31;;;12.44;100.00
48364;BME280;34170;54.364;18.582;2022-07-29T01:54:13;100985.59;;;12.35;100.00
48364;BME280;34170;54.364;18.582;2022-07-29T01:56:43;100981.06;;;12.35;100.00
48364;BME280;34170;54.364;18.582;2022-07-29T01:59:12;100983.75;;;12.35;100.00
48364;BME280;34170;54.364;18.582;2022-07-29T02:01:41;100980.47;;;12.32;100.00
48364;BME280;34170;54.364;18.582;2022-07-29T02:04:10;100972.84;;;12.37;100.00
48364;BME280;34170;54.364;18.582;2022-07-29T02:07:00;100974.56;;;12.38;100.00
48364;BME280;34170;54.364;18.582;2022-07-29T02:09:30;100977.81;;;12.42;100.00
48364;BME280;34170;54.364;18.582;2022-07-29T02:12:00;100975.41;;;12.38;100.00
48364;BME280;34170;54.364;18.582;2022-07-29T02:14:36;100982.06;;;12.44;100.00
48364;BME280;34170;54.364;18.582;2022-07-29T02:17:04;100982.38;;;12.51;100.00
48364;BME280;34170;54.364;18.582;2022-07-29T02:19:33;100979.94;;;12.48;100.00
48364;BME280;34170;54.364;18.582;2022-07-29T02:22:01;100982.06;;;12.44;100.00
48364;BME280;34170;54.364;18.582;2022-07-29T02:24:30;100975.41;;;12.38;100.00
48364;BME280;34170;54.364;18.582;2022-07-29T02:26:58;100977.81;;;12.42;100.00
48364;BME280;34170;54.364;18.582;2022-07-29T02:29:28;100975.97;;;12.42;100.00
48364;BME280;34170;54.364;18.582;2022-07-29T02:31:58;100976.66;;;12.44;100.00
48364;BME280;34170;54.364;18.582;2022-07-29T02:34:28;100968.16;;;12.39;100.00
48364;BME280;34170;54.364;18.582;2022-07-29T02:36:56;100986.47;;;12.45;100.00
48364;BME280;34170;54.364;18.582;2022-07-29T02:39:24;100975.41;;;12.38;100.00
48364;BME280;34170;54.364;18.582;2022-07-29T02:41:59;100971.13;;;12.46;100.00
48364;BME280;34170;54.364;18.582;2022-07-29T02:44:30;100983.63;;;12.56;100.00
48364;BME280;34170;54.364;18.582;2022-07-29T02:47:10;100989.59;;;12.60;100.00
48364;BME280;34170;54.364;18.582;2022-07-29T02:52:42;100987.50;;;12.73;100.00
48364;BME280;34170;54.364;18.582;2022-07-29T02:55:29;100990.34;;;12.72;100.00
48364;BME280;34170;54.364;18.582;2022-07-29T02:58:25;100986.75;;;12.71;100.00
48364;BME280;34170;54.364;18.582;2022-07-29T03:00:51;100978.84;;;12.70;100.00
48364;BME280;34170;54.364;18.582;2022-07-29T03:03:20;100985.78;;;12.72;100.00
48364;BME280;34170;54.364;18.582;2022-07-29T03:05:48;100987.75;;;12.80;100.00
48364;BME280;34170;54.364;18.582;2022-07-29T03:08:16;100990.59;;;12.78;100.00
48364;BME280;34170;54.364;18.582;2022-07-29T03:10:46;100988.91;;;12.77;100.00
48364;BME280;34170;54.364;18.582;2022-07-29T03:13:14;100988.63;;;12.81;100.00
48364;BME280;34170;54.364;18.582;2022-07-29T03:15:44;100969.44;;;12.84;100.00
48364;BME280;34170;54.364;18.582;2022-07-29T03:18:12;100989.31;;;13.02;100.00
48364;BME280;34170;54.364;18.582;2022-07-29T03:20:39;100986.03;;;13.08;100.00
48364;BME280;34170;54.364;18.582;2022-07-29T03:23:08;100986.44;;;13.13;100.00
48364;BME280;34170;54.364;18.582;2022-07-29T03:25:35;100981.19;;;13.22;100.00
48364;BME280;34170;54.364;18.582;2022-07-29T03:28:03;100981.59;;;13.37;100.00
48364;BME280;34170;54.364;18.582;2022-07-29T03:30:30;100985.28;;;13.45;100.00
48364;BME280;34170;54.364;18.582;2022-07-29T03:32:58;100980.66;;;13.56;100.00
48364;BME280;34170;54.364;18.582;2022-07-29T03:35:25;100991.31;;;13.67;100.00
48364;BME280;34170;54.364;18.582;2022-07-29T03:37:52;100990.69;;;13.73;100.00
48364;BME280;34170;54.364;18.582;2022-07-29T03:40:24;100996.22;;;13.81;100.00
48364;BME280;34170;54.364;18.582;2022-07-29T03:42:53;100991.94;;;13.88;100.00
48364;BME280;34170;54.364;18.582;2022-07-29T03:45:23;100986.22;;;13.91;100.00
48364;BME280;34170;54.364;18.582;2022-07-29T03:47:56;100997.94;;;14.10;100.00
48364;BME280;34170;54.364;18.582;2022-07-29T03:50:28;101000.81;;;14.26;100.00
48364;BME280;34170;54.364;18.582;2022-07-29T03:52:57;101001.66;;;14.27;100.00
48364;BME280;34170;54.364;18.582;2022-07-29T03:55:26;100999.97;;;14.26;100.00
48364;BME280;34170;54.364;18.582;2022-07-29T03:57:56;100992.84;;;14.25;100.00
48364;BME280;34170;54.364;18.582;2022-07-29T04:00:26;100999.59;;;14.39;100.00
48364;BME280;34170;54.364;18.582;2022-07-29T04:02:54;101002.06;;;14.50;100.00
48364;BME280;34170;54.364;18.582;2022-07-29T04:05:21;101003.59;;;14.62;100.00
48364;BME280;34170;54.364;18.582;2022-07-29T04:07:48;101004.75;;;14.78;100.00
48364;BME280;34170;54.364;18.582;2022-07-29T04:10:17;100998.53;;;15.03;100.00
48364;BME280;34170;54.364;18.582;2022-07-29T04:12:56;101007.22;;;15.33;100.00
48364;BME280;34170;54.364;18.582;2022-07-29T04:15:24;101009.06;;;15.51;100.00
48364;BME280;34170;54.364;18.582;2022-07-29T04:17:51;101006.00;;;15.80;100.00
48364;BME280;34170;54.364;18.582;2022-07-29T04:20:19;101009.06;;;16.19;100.00
48364;BME280;34170;54.364;18.582;2022-07-29T04:22:46;101009.78;;;16.30;100.00
48364;BME280;34170;54.364;18.582;2022-07-29T04:25:13;101010.19;;;16.68;100.00
48364;BME280;34170;54.364;18.582;2022-07-29T04:27:41;100998.66;;;17.15;100.00
48364;BME280;34170;54.364;18.582;2022-07-29T04:30:27;101005.03;;;17.63;100.00
48364;BME280;34170;54.364;18.582;2022-07-29T04:32:55;101011.63;;;17.77;100.00
48364;BME280;34170;54.364;18.582;2022-07-29T04:35:22;101016.19;;;17.85;100.00
48364;BME280;34170;54.364;18.582;2022-07-29T04:37:49;101019.03;;;17.52;100.00
48364;BME280;34170;54.364;18.582;2022-07-29T04:40:17;101007.59;;;17.65;100.00
48364;BME280;34170;54.364;18.582;2022-07-29T04:42:44;101013.09;;;17.24;99.60
48364;BME280;34170;54.364;18.582;2022-07-29T04:45:13;101011.91;;;16.93;100.00
48364;BME280;34170;54.364;18.582;2022-07-29T04:47:42;101022.06;;;16.75;100.00
48364;BME280;34170;54.364;18.582;2022-07-29T04:50:09;101013.66;;;17.03;100.00
48364;BME280;34170;54.364;18.582;2022-07-29T04:52:37;101018.50;;;17.48;99.16
48364;BME280;34170;54.364;18.582;2022-07-29T04:55:05;101011.56;;;17.29;98.19
48364;BME280;34170;54.364;18.582;2022-07-29T04:57:32;101019.69;;;17.62;97.65
48364;BME280;34170;54.364;18.582;2022-07-29T05:00:00;101020.53;;;17.63;92.98
48364;BME280;34170;54.364;18.582;2022-07-29T05:02:28;101018.06;;;16.95;95.95
48364;BME280;34170;54.364;18.582;2022-07-29T05:04:55;101021.56;;;17.53;94.06
48364;BME280;34170;54.364;18.582;2022-07-29T05:07:23;101021.06;;;17.50;92.45
48364;BME280;34170;54.364;18.582;2022-07-29T05:09:50;101018.03;;;18.01;91.70
48364;BME280;34170;54.364;18.582;2022-07-29T05:12:18;101026.94;;;17.86;91.28
48364;BME280;34170;54.364;18.582;2022-07-29T05:14:45;101032.56;;;17.68;91.12
48364;BME280;34170;54.364;18.582;2022-07-29T05:17:12;101032.81;;;17.18;94.34
48364;BME280;34170;54.364;18.582;2022-07-29T05:19:40;101036.38;;;17.18;93.89
48364;BME280;34170;54.364;18.582;2022-07-29T05:22:07;101038.44;;;17.00;94.68
48364;BME280;34170;54.364;18.582;2022-07-29T05:24:34;101036.81;;;16.64;96.81
48364;BME280;34170;54.364;18.582;2022-07-29T05:27:02;101031.88;;;16.51;98.26
48364;BME280;34170;54.364;18.582;2022-07-29T05:29:29;101043.13;;;16.81;97.01
48364;BME280;34170;54.364;18.582;2022-07-29T05:32:14;101033.47;;;17.36;93.28
48364;BME280;34170;54.364;18.582;2022-07-29T05:34:42;101030.38;;;17.88;90.16
48364;BME280;34170;54.364;18.582;2022-07-29T05:37:20;101030.34;;;18.91;82.92
48364;BME280;34170;54.364;18.582;2022-07-29T05:39:47;101030.44;;;18.97;82.52
48364;BME280;34170;54.364;18.582;2022-07-29T05:42:24;101040.19;;;18.92;80.99
48364;BME280;34170;54.364;18.582;2022-07-29T05:44:52;101046.50;;;21.72;71.91
48364;BME280;34170;54.364;18.582;2022-07-29T05:47:19;101039.63;;;24.58;54.78
48364;BME280;34170;54.364;18.582;2022-07-29T05:49:47;101042.22;;;26.41;49.81
48364;BME280;34170;54.364;18.582;2022-07-29T05:52:14;101042.09;;;26.17;46.09
48364;BME280;34170;54.364;18.582;2022-07-29T05:54:42;101041.78;;;26.74;45.08
48364;BME280;34170;54.364;18.582;2022-07-29T05:57:17;101044.66;;;30.70;34.92
48364;BME280;34170;54.364;18.582;2022-07-29T05:59:45;101037.53;;;31.77;33.08
48364;BME280;34170;54.364;18.582;2022-07-29T06:02:14;101035.06;;;32.43;31.42
48364;BME280;34170;54.364;18.582;2022-07-29T06:04:42;101046.06;;;33.73;28.87
48364;BME280;34170;54.364;18.582;2022-07-29T06:07:09;101043.63;;;34.27;27.85
48364;BME280;34170;54.364;18.582;2022-07-29T06:09:38;101037.84;;;35.07;27.09
48364;BME280;34170;54.364;18.582;2022-07-29T06:12:05;101041.66;;;36.29;24.29
48364;BME280;34170;54.364;18.582;2022-07-29T06:14:33;101038.03;;;34.82;25.62
48364;BME280;34170;54.364;18.582;2022-07-29T06:17:01;101043.09;;;36.02;25.12
48364;BME280;34170;54.364;18.582;2022-07-29T06:19:28;101039.03;;;37.13;22.71
48364;BME280;34170;54.364;18.582;2022-07-29T06:21:56;101040.53;;;37.71;22.21
48364;BME280;34170;54.364;18.582;2022-07-29T06:24:23;101047.06;;;34.68;25.24
48364;BME280;34170;54.364;18.582;2022-07-29T06:26:51;101050.28;;;31.40;31.64
48364;BME280;34170;54.364;18.582;2022-07-29T06:29:18;101046.84;;;30.68;32.18
48364;BME280;34170;54.364;18.582;2022-07-29T06:31:45;101037.94;;;32.74;29.00
48364;BME280;34170;54.364;18.582;2022-07-29T06:34:13;101046.22;;;37.19;23.95
48364;BME280;34170;54.364;18.582;2022-07-29T06:36:41;101056.63;;;38.63;20.71
48364;BME280;34170;54.364;18.582;2022-07-29T06:39:08;101053.97;;;37.74;22.07
48364;BME280;34170;54.364;18.582;2022-07-29T06:41:39;101057.19;;;37.82;21.30
48364;BME280;34170;54.364;18.582;2022-07-29T06:44:09;101036.00;;;30.39;30.70
48364;BME280;34170;54.364;18.582;2022-07-29T06:46:36;101041.03;;;30.70;31.29
48364;BME280;34170;54.364;18.582;2022-07-29T06:49:04;101055.69;;;34.07;25.27
48364;BME280;34170;54.364;18.582;2022-07-29T06:51:32;101047.81;;;34.34;24.80
48364;BME280;34170;54.364;18.582;2022-07-29T06:53:59;101051.06;;;34.97;25.24
48364;BME280;34170;54.364;18.582;2022-07-29T06:56:30;101049.50;;;36.51;22.36
48364;BME280;34170;54.364;18.582;2022-07-29T06:59:07;101040.78;;;33.15;26.74
48364;BME280;34170;54.364;18.582;2022-07-29T07:01:40;101040.22;;;30.25;30.99
48364;BME280;34170;54.364;18.582;2022-07-29T07:04:08;101051.25;;;31.99;29.43
48364;BME280;34170;54.364;18.582;2022-07-29T07:06:37;101042.13;;;32.92;27.95
48364;BME280;34170;54.364;18.582;2022-07-29T07:09:05;101046.97;;;35.53;24.82
48364;BME280;34170;54.364;18.582;2022-07-29T07:11:33;101044.22;;;35.47;24.57
48364;BME280;34170;54.364;18.582;2022-07-29T07:14:00;101043.22;;;29.45;31.93
48364;BME280;34170;54.364;18.582;2022-07-29T07:16:40;101037.38;;;29.25;33.22
48364;BME280;34170;54.364;18.582;2022-07-29T07:19:08;101034.09;;;28.25;34.28
48364;BME280;34170;54.364;18.582;2022-07-29T07:21:36;101045.28;;;25.52;41.42
48364;BME280;34170;54.364;18.582;2022-07-29T07:24:04;101038.59;;;29.68;33.71
48364;BME280;34170;54.364;18.582;2022-07-29T07:26:31;101040.47;;;32.91;27.84
48364;BME280;34170;54.364;18.582;2022-07-29T07:28:59;101054.16;;;33.29;27.16
48364;BME280;34170;54.364;18.582;2022-07-29T07:31:27;101039.69;;;31.32;29.00
48364;BME280;34170;54.364;18.582;2022-07-29T07:33:54;101035.75;;;32.08;28.37
48364;BME280;34170;54.364;18.582;2022-07-29T07:36:22;101042.75;;;31.68;29.05
48364;BME280;34170;54.364;18.582;2022-07-29T07:38:50;101032.75;;;30.75;29.92
48364;BME280;34170;54.364;18.582;2022-07-29T07:41:17;101041.34;;;32.13;28.54
48364;BME280;34170;54.364;18.582;2022-07-29T07:43:45;101037.53;;;31.39;29.00
48364;BME280;34170;54.364;18.582;2022-07-29T07:46:12;101031.00;;;31.56;29.13
48364;BME280;34170;54.364;18.582;2022-07-29T07:48:40;101035.03;;;29.17;32.89
48364;BME280;34170;54.364;18.582;2022-07-29T07:51:07;101031.59;;;28.52;33.84
48364;BME280;34170;54.364;18.582;2022-07-29T07:53:35;101022.06;;;28.60;34.03
48364;BME280;34170;54.364;18.582;2022-07-29T07:56:02;101035.19;;;30.44;31.67
48364;BME280;34170;54.364;18.582;2022-07-29T07:58:38;101043.22;;;29.79;32.37
48364;BME280;34170;54.364;18.582;2022-07-29T08:01:06;101029.75;;;28.69;34.24
48364;BME280;34170;54.364;18.582;2022-07-29T08:03:34;101028.31;;;26.66;38.08
48364;BME280;34170;54.364;18.582;2022-07-29T08:06:03;101030.97;;;25.87;39.79
48364;BME280;34170;54.364;18.582;2022-07-29T08:08:30;101032.75;;;24.74;42.05
48364;BME280;34170;54.364;18.582;2022-07-29T08:10:58;101037.28;;;24.03;44.15
48364;BME280;34170;54.364;18.582;2022-07-29T08:13:31;101037.25;;;22.63;47.75
48364;BME280;34170;54.364;18.582;2022-07-29T08:15:59;101022.56;;;21.52;52.14
48364;BME280;34170;54.364;18.582;2022-07-29T08:18:39;101035.94;;;24.19;45.10
48364;BME280;34170;54.364;18.582;2022-07-29T08:21:07;101033.72;;;26.42;38.90
48364;BME280;34170;54.364;18.582;2022-07-29T08:23:35;101049.00;;;27.17;37.35
48364;BME280;34170;54.364;18.582;2022-07-29T08:26:15;101043.88;;;26.12;39.22
48364;BME280;34170;54.364;18.582;2022-07-29T08:28:44;101053.41;;;25.15;41.56
48364;BME280;34170;54.364;18.582;2022-07-29T08:31:13;101044.78;;;24.34;42.83
48364;BME280;34170;54.364;18.582;2022-07-29T08:33:41;101044.31;;;23.12;45.73
48364;BME280;34170;54.364;18.582;2022-07-29T08:36:08;101048.25;;;20.87;54.15
48364;BME280;34170;54.364;18.582;2022-07-29T08:38:36;101056.78;;;23.35;47.28
48364;BME280;34170;54.364;18.582;2022-07-29T08:41:04;101057.56;;;27.28;37.53
48364;BME280;34170;54.364;18.582;2022-07-29T08:43:31;101055.63;;;28.11;35.49
48364;BME280;34170;54.364;18.582;2022-07-29T08:46:00;101043.75;;;27.75;35.73
48364;BME280;34170;54.364;18.582;2022-07-29T08:48:27;101065.84;;;29.37;33.47
48364;BME280;34170;54.364;18.582;2022-07-29T08:50:56;101065.56;;;27.17;36.58
48364;BME280;34170;54.364;18.582;2022-07-29T08:53:26;101052.78;;;22.42;48.38
48364;BME280;34170;54.364;18.582;2022-07-29T08:55:55;101054.06;;;21.70;49.27
48364;BME280;34170;54.364;18.582;2022-07-29T08:58:23;101047.03;;;24.58;43.67
48364;BME280;34170;54.364;18.582;2022-07-29T09:00:54;101056.00;;;27.32;37.71
48364;BME280;34170;54.364;18.582;2022-07-29T09:03:30;101052.41;;;27.79;36.45
48364;BME280;34170;54.364;18.582;2022-07-29T09:05:59;101062.59;;;27.31;37.35
48364;BME280;34170;54.364;18.582;2022-07-29T09:08:27;101041.84;;;28.40;35.49
48364;BME280;34170;54.364;18.582;2022-07-29T09:10:54;101060.72;;;28.55;33.62
48364;BME280;34170;54.364;18.582;2022-07-29T09:13:26;101056.88;;;27.02;36.72
48364;BME280;34170;54.364;18.582;2022-07-29T09:15:53;101053.53;;;24.11;42.87
48364;BME280;34170;54.364;18.582;2022-07-29T09:18:34;101055.31;;;22.44;47.51
48364;BME280;34170;54.364;18.582;2022-07-29T09:21:03;101044.22;;;21.47;51.27
48364;BME280;34170;54.364;18.582;2022-07-29T09:24:04;101033.16;;;21.41;51.41
48364;BME280;34170;54.364;18.582;2022-07-29T09:26:34;101053.16;;;21.63;52.19
48364;BME280;34170;54.364;18.582;2022-07-29T09:29:10;101031.78;;;24.55;44.41
48364;BME280;34170;54.364;18.582;2022-07-29T09:31:41;101033.09;;;23.87;45.31
48364;BME280;34170;54.364;18.582;2022-07-29T09:34:11;101044.69;;;25.18;42.62
48364;BME280;34170;54.364;18.582;2022-07-29T09:36:41;101049.16;;;26.92;38.41
48364;BME280;34170;54.364;18.582;2022-07-29T09:39:08;101050.53;;;25.79;39.25
48364;BME280;34170;54.364;18.582;2022-07-29T09:41:46;101050.63;;;27.61;36.39
48364;BME280;34170;54.364;18.582;2022-07-29T09:44:15;101042.28;;;27.25;36.99
48364;BME280;34170;54.364;18.582;2022-07-29T09:49:25;101040.25;;;26.11;38.89
48364;BME280;34170;54.364;18.582;2022-07-29T09:52:04;101042.75;;;25.76;39.59
48364;BME280;34170;54.364;18.582;2022-07-29T09:54:31;101029.88;;;24.04;43.55
48364;BME280;34170;54.364;18.582;2022-07-29T09:57:08;101045.38;;;26.08;39.24
48364;BME280;34170;54.364;18.582;2022-07-29T09:59:56;101034.94;;;24.97;40.94
48364;BME280;34170;54.364;18.582;2022-07-29T10:02:28;101038.84;;;25.65;39.29
48364;BME280;34170;54.364;18.582;2022-07-29T10:04:55;101039.03;;;26.56;37.83
48364;BME280;34170;54.364;18.582;2022-07-29T10:07:23;101027.78;;;25.15;40.64
48364;BME280;34170;54.364;18.582;2022-07-29T10:09:56;101026.19;;;24.75;40.92
48364;BME280;34170;54.364;18.582;2022-07-29T10:12:24;101034.75;;;24.53;41.60
48364;BME280;34170;54.364;18.582;2022-07-29T10:14:51;101030.88;;;25.00;40.16
48364;BME280;34170;54.364;18.582;2022-07-29T10:17:18;101026.53;;;24.85;40.56
48364;BME280;34170;54.364;18.582;2022-07-29T10:19:47;101026.75;;;23.87;43.13
48364;BME280;34170;54.364;18.582;2022-07-29T10:22:16;101027.81;;;24.38;42.02
48364;BME280;34170;54.364;18.582;2022-07-29T10:25:03;101016.38;;;24.54;40.72
48364;BME280;34170;54.364;18.582;2022-07-29T10:27:31;101021.84;;;25.24;38.24
48364;BME280;34170;54.364;18.582;2022-07-29T10:29:59;101022.75;;;25.62;38.19
48364;BME280;34170;54.364;18.582;2022-07-29T10:35:30;101020.25;;;24.33;38.83
48364;BME280;34170;54.364;18.582;2022-07-29T10:38:14;101020.94;;;24.22;35.88
48364;BME280;34170;54.364;18.582;2022-07-29T10:44:02;101019.44;;;25.53;32.04
48364;BME280;34170;54.364;18.582;2022-07-29T10:46:40;101011.22;;;25.21;32.91
48364;BME280;34170;54.364;18.582;2022-07-29T10:49:16;101009.03;;;23.69;35.22
48364;BME280;34170;54.364;18.582;2022-07-29T10:54:19;101019.00;;;25.06;31.97
48364;BME280;34170;54.364;18.582;2022-07-29T10:57:21;101015.38;;;23.50;33.24
48364;BME280;34170;54.364;18.582;2022-07-29T11:00:26;101009.19;;;24.46;32.80
48364;BME280;34170;54.364;18.582;2022-07-29T11:02:54;101029.34;;;23.41;33.65
48364;BME280;34170;54.364;18.582;2022-07-29T11:05:23;101022.41;;;22.37;34.87
48364;BME280;34170;54.364;18.582;2022-07-29T11:10:48;101014.72;;;23.88;33.25
48364;BME280;34170;54.364;18.582;2022-07-29T11:13:46;101021.75;;;23.10;33.96
48364;BME280;34170;54.364;18.582;2022-07-29T11:16:16;101009.03;;;22.76;34.42
48364;BME280;34170;54.364;18.582;2022-07-29T11:21:44;101008.06;;;21.30;38.82
48364;BME280;34170;54.364;18.582;2022-07-29T11:24:31;101018.59;;;21.05;38.84
48364;BME280;34170;54.364;18.582;2022-07-29T11:29:56;101006.81;;;19.95;38.72
48364;BME280;34170;54.364;18.582;2022-07-29T11:32:37;100996.97;;;20.31;38.72
48364;BME280;34170;54.364;18.582;2022-07-29T11:35:23;100998.59;;;20.25;39.58
48364;BME280;34170;54.364;18.582;2022-07-29T11:38:24;100993.41;;;20.15;40.92
48364;BME280;34170;54.364;18.582;2022-07-29T11:41:22;101002.69;;;19.99;39.36
48364;BME280;34170;54.364;18.582;2022-07-29T11:43:53;100993.75;;;19.91;39.17
48364;BME280;34170;54.364;18.582;2022-07-29T11:46:47;100998.16;;;20.43;39.23
48364;BME280;34170;54.364;18.582;2022-07-29T11:49:24;100999.00;;;20.44;40.17
48364;BME280;34170;54.364;18.582;2022-07-29T11:51:59;101001.09;;;20.05;38.85
48364;BME280;34170;54.364;18.582;2022-07-29T11:54:33;101006.03;;;20.16;39.96
48364;BME280;34170;54.364;18.582;2022-07-29T11:57:21;101006.81;;;19.95;41.21
48364;BME280;34170;54.364;18.582;2022-07-29T12:00:09;101005.03;;;19.88;42.71
48364;BME280;34170;54.364;18.582;2022-07-29T12:02:43;100990.94;;;19.84;42.73
48364;BME280;34170;54.364;18.582;2022-07-29T12:05:15;100994.88;;;19.96;43.37
48364;BME280;34170;54.364;18.582;2022-07-29T12:10:41;101003.22;;;20.10;43.14
48364;BME280;34170;54.364;18.582;2022-07-29T12:13:10;100999.38;;;20.04;45.52
48364;BME280;34170;54.364;18.582;2022-07-29T12:15:38;101005.00;;;19.58;43.49
48364;BME280;34170;54.364;18.582;2022-07-29T12:18:17;100997.19;;;19.40;43.92
48364;BME280;34170;54.364;18.582;2022-07-29T12:20:46;100990.84;;;19.77;43.60
48364;BME280;34170;54.364;18.582;2022-07-29T12:23:15;100996.81;;;19.58;44.24
48364;BME280;34170;54.364;18.582;2022-07-29T12:25:44;100990.22;;;19.52;43.42
48364;BME280;34170;54.364;18.582;2022-07-29T12:28:16;100999.53;;;19.58;45.15
48364;BME280;34170;54.364;18.582;2022-07-29T12:30:53;101002.97;;;19.75;45.69
48364;BME280;34170;54.364;18.582;2022-07-29T12:33:24;101007.97;;;19.86;42.94
48364;BME280;34170;54.364;18.582;2022-07-29T12:35:56;101007.75;;;19.73;45.70
48364;BME280;34170;54.364;18.582;2022-07-29T12:38:44;101001.72;;;19.62;45.29
48364;BME280;34170;54.364;18.582;2022-07-29T12:41:12;100999.25;;;19.38;44.96
48364;BME280;34170;54.364;18.582;2022-07-29T12:43:52;100999.91;;;19.40;46.16
48364;BME280;34170;54.364;18.582;2022-07-29T12:46:20;100990.16;;;19.60;47.20
48364;BME280;34170;54.364;18.582;2022-07-29T12:48:51;101001.91;;;20.06;45.44
48364;BME280;34170;54.364;18.582;2022-07-29T12:51:29;100996.47;;;20.06;44.67
48364;BME280;34170;54.364;18.582;2022-07-29T12:54:12;101007.94;;;19.71;46.06
48364;BME280;34170;54.364;18.582;2022-07-29T12:56:43;100997.56;;;19.67;47.00
48364;BME280;34170;54.364;18.582;2022-07-29T12:59:22;101007.22;;;19.77;46.30
48364;BME280;34170;54.364;18.582;2022-07-29T13:01:51;100998.63;;;19.66;48.24
48364;BME280;34170;54.364;18.582;2022-07-29T13:04:37;101004.56;;;19.84;48.59
48364;BME280;34170;54.364;18.582;2022-07-29T13:07:06;100999.78;;;19.86;47.69
48364;BME280;34170;54.364;18.582;2022-07-29T13:09:45;100988.84;;;19.86;46.48
48364;BME280;34170;54.364;18.582;2022-07-29T13:12:13;100990.34;;;20.04;48.12
48364;BME280;34170;54.364;18.582;2022-07-29T13:14:42;100982.31;;;20.17;45.10
48364;BME280;34170;54.364;18.582;2022-07-29T13:17:14;100993.16;;;20.10;45.37
48364;BME280;34170;54.364;18.582;2022-07-29T13:19:43;100984.13;;;20.10;46.62
48364;BME280;34170;54.364;18.582;2022-07-29T13:22:12;100987.44;;;19.90;48.47
48364;BME280;34170;54.364;18.582;2022-07-29T13:24:50;100985.22;;;19.26;51.33
48364;BME280;34170;54.364;18.582;2022-07-29T13:27:20;100995.13;;;19.72;51.42
48364;BME280;34170;54.364;18.582;2022-07-29T13:29:47;100981.03;;;19.53;51.92
48364;BME280;34170;54.364;18.582;2022-07-29T13:32:15;100985.38;;;19.77;50.79
48364;BME280;34170;54.364;18.582;2022-07-29T13:34:44;100982.84;;;19.91;48.55